sensor_id;sensor_type;location;lat;lon;timestamp;temperature;humidity
28654;DHT22;24320;56.980;24.336;2023-08-07T00:00:44;25.30;99.90
28654;DHT22;24320;56.980;24.336;2023-08-07T00:03:11;25.30;99.90
28654;DHT22;24320;56.980;24.336;2023-08-07T00:05:38;25.30;99.90
28654;DHT22;24320;56.980;24.336;2023-08-07T00:08:05;25.30;99.90
28654;DHT22;24320;56.980;24.336;2023-08-07T00:10:33;25.20;99.90
28654;DHT22;24320;56.980;24.336;2023-08-07T00:13:00;25.20;99.90
28654;DHT22;24320;56.980;24.336;2023-08-07T00:15:26;25.20;99.90
28654;DHT22;24320;56.980;24.336;2023-08-07T00:17:54;25.20;99.90
28654;DHT22;24320;56.980;24.336;2023-08-07T00:20:21;25.10;99.90
28654;DHT22;24320;56.980;24.336;2023-08-07T00:22:48;25.20;99.90
28654;DHT22;24320;56.980;24.336;2023-08-07T00:25:15;25.20;99.90
28654;DHT22;24320;56.980;24.336;2023-08-07T00:27:42;25.10;99.90
28654;DHT22;24320;56.980;24.336;2023-08-07T00:30:09;25.10;99.90
28654;DHT22;24320;56.980;24.336;2023-08-07T00:32:37;25.10;99.90
28654;DHT22;24320;56.980;24.336;2023-08-07T00:35:05;25.10;99.90
28654;DHT22;24320;56.980;24.336;2023-08-07T00:37:32;25.00;99.90
28654;DHT22;24320;56.980;24.336;2023-08-07T00:39:59;25.00;99.90
28654;DHT22;24320;56.980;24.336;2023-08-07T00:42:26;25.00;99.90
28654;DHT22;24320;56.980;24.336;2023-08-07T00:44:53;24.90;99.90
28654;DHT22;24320;56.980;24.336;2023-08-07T00:47:20;24.90;99.90
28654;DHT22;24320;56.980;24.336;2023-08-07T00:49:48;24.90;99.90
28654;DHT22;24320;56.980;24.336;2023-08-07T00:52:15;25.00;99.90
28654;DHT22;24320;56.980;24.336;2023-08-07T00:54:46;25.00;99.90
28654;DHT22;24320;56.980;24.336;2023-08-07T00:57:13;25.00;99.90
28654;DHT22;24320;56.980;24.336;2023-08-07T00:59:44;24.90;99.90
28654;DHT22;24320;56.980;24.336;2023-08-07T01:02:12;24.80;99.90
28654;DHT22;24320;56.980;24.336;2023-08-07T01:04:40;24.80;99.90
28654;DHT22;24320;56.980;24.336;2023-08-07T01:07:07;24.80;99.90
28654;DHT22;24320;56.980;24.336;2023-08-07T01:09:34;24.70;99.90
28654;DHT22;24320;56.980;24.336;2023-08-07T01:12:15;24.70;99.90
28654;DHT22;24320;56.980;24.336;2023-08-07T01:17:28;24.80;99.90
28654;DHT22;24320;56.980;24.336;2023-08-07T01:19:56;24.80;99.90
28654;DHT22;24320;56.980;24.336;2023-08-07T01:22:24;24.80;99.90
28654;DHT22;24320;56.980;24.336;2023-08-07T01:24:51;24.90;99.90
28654;DHT22;24320;56.980;24.336;2023-08-07T01:35:43;24.80;99.90
28654;DHT22;24320;56.980;24.336;2023-08-07T01:38:12;24.80;99.90
28654;DHT22;24320;56.980;24.336;2023-08-07T01:40:42;24.80;99.90
28654;DHT22;24320;56.980;24.336;2023-08-07T01:43:09;24.80;99.90
28654;DHT22;24320;56.980;24.336;2023-08-07T01:45:36;24.90;99.90
28654;DHT22;24320;56.980;24.336;2023-08-07T01:48:04;24.80;99.90
28654;DHT22;24320;56.980;24.336;2023-08-07T01:50:31;24.80;99.90
28654;DHT22;24320;56.980;24.336;2023-08-07T01:52:58;24.80;99.90
28654;DHT22;24320;56.980;24.336;2023-08-07T01:55:25;24.80;99.90
28654;DHT22;24320;56.980;24.336;2023-08-07T01:57:53;24.90;99.90
28654;DHT22;24320;56.980;24.336;2023-08-07T02:00:20;24.90;99.90
28654;DHT22;24320;56.980;24.336;2023-08-07T02:02:47;24.90;99.90
28654;DHT22;24320;56.980;24.336;2023-08-07T02:05:15;24.80;99.90
28654;DHT22;24320;56.980;24.336;2023-08-07T02:07:42;24.80;99.90
28654;DHT22;24320;56.980;24.336;2023-08-07T02:10:10;24.80;99.90
28654;DHT22;24320;56.980;24.336;2023-08-07T02:12:37;24.90;99.90
28654;DHT22;24320;56.980;24.336;2023-08-07T02:15:04;24.90;99.90
28654;DHT22;24320;56.980;24.336;2023-08-07T02:17:31;24.90;99.90
28654;DHT22;24320;56.980;24.336;2023-08-07T02:19:59;24.90;99.90
28654;DHT22;24320;56.980;24.336;2023-08-07T02:22:26;24.90;99.90
28654;DHT22;24320;56.980;24.336;2023-08-07T02:24:53;24.90;99.90
28654;DHT22;24320;56.980;24.336;2023-08-07T02:27:20;24.90;99.90
28654;DHT22;24320;56.980;24.336;2023-08-07T02:29:47;24.90;99.90
28654;DHT22;24320;56.980;24.336;2023-08-07T02:32:14;24.90;99.90
28654;DHT22;24320;56.980;24.336;2023-08-07T02:34:41;24.90;99.90
28654;DHT22;24320;56.980;24.336;2023-08-07T02:37:08;24.90;99.90
28654;DHT22;24320;56.980;24.336;2023-08-07T02:39:35;24.90;99.90
28654;DHT22;24320;56.980;24.336;2023-08-07T02:42:03;24.80;99.90
28654;DHT22;24320;56.980;24.336;2023-08-07T02:44:30;24.80;99.90
28654;DHT22;24320;56.980;24.336;2023-08-07T02:46:57;24.80;99.90
28654;DHT22;24320;56.980;24.336;2023-08-07T02:49:24;24.80;99.90
28654;DHT22;24320;56.980;24.336;2023-08-07T02:51:51;24.80;99.90
28654;DHT22;24320;56.980;24.336;2023-08-07T02:54:18;24.80;99.90
28654;DHT22;24320;56.980;24.336;2023-08-07T02:59:25;24.90;99.90
28654;DHT22;24320;56.980;24.336;2023-08-07T03:01:53;24.90;99.90
28654;DHT22;24320;56.980;24.336;2023-08-07T03:04:21;24.90;99.90
28654;DHT22;24320;56.980;24.336;2023-08-07T03:06:48;24.90;99.90
28654;DHT22;24320;56.980;24.336;2023-08-07T03:09:15;24.90;99.90
28654;DHT22;24320;56.980;24.336;2023-08-07T03:11:42;25.00;99.90
28654;DHT22;24320;56.980;24.336;2023-08-07T03:14:09;25.00;99.90
28654;DHT22;24320;56.980;24.336;2023-08-07T03:16:36;25.00;99.90
28654;DHT22;24320;56.980;24.336;2023-08-07T03:19:03;25.10;99.90
28654;DHT22;24320;56.980;24.336;2023-08-07T03:21:30;25.20;99.90
28654;DHT22;24320;56.980;24.336;2023-08-07T03:24:03;25.30;99.90
28654;DHT22;24320;56.980;24.336;2023-08-07T03:26:30;25.40;99.90
28654;DHT22;24320;56.980;24.336;2023-08-07T03:28:58;25.40;99.90
28654;DHT22;24320;56.980;24.336;2023-08-07T03:31:25;25.40;99.90
28654;DHT22;24320;56.980;24.336;2023-08-07T03:33:52;25.40;99.90
28654;DHT22;24320;56.980;24.336;2023-08-07T03:36:20;25.50;99.90
28654;DHT22;24320;56.980;24.336;2023-08-07T03:38:47;25.70;99.90
28654;DHT22;24320;56.980;24.336;2023-08-07T03:41:14;25.90;99.90
28654;DHT22;24320;56.980;24.336;2023-08-07T03:43:41;26.00;99.90
28654;DHT22;24320;56.980;24.336;2023-08-07T03:46:08;26.10;99.90
28654;DHT22;24320;56.980;24.336;2023-08-07T03:48:35;26.10;99.90
28654;DHT22;24320;56.980;24.336;2023-08-07T03:51:06;26.30;99.90
28654;DHT22;24320;56.980;24.336;2023-08-07T03:53:37;26.40;99.90
28654;DHT22;24320;56.980;24.336;2023-08-07T03:56:04;26.60;99.90
28654;DHT22;24320;56.980;24.336;2023-08-07T03:58:31;26.70;99.90
28654;DHT22;24320;56.980;24.336;2023-08-07T04:00:58;26.80;99.90
28654;DHT22;24320;56.980;24.336;2023-08-07T04:03:25;26.80;99.90
28654;DHT22;24320;56.980;24.336;2023-08-07T04:05:53;26.80;99.90
28654;DHT22;24320;56.980;24.336;2023-08-07T04:08:21;26.90;99.90
28654;DHT22;24320;56.980;24.336;2023-08-07T04:11:02;27.10;99.90
28654;DHT22;24320;56.980;24.336;2023-08-07T04:13:30;27.30;99.90
28654;DHT22;24320;56.980;24.336;2023-08-07T04:15:57;27.30;99.90
28654;DHT22;24320;56.980;24.336;2023-08-07T04:18:25;27.20;99.90
28654;DHT22;24320;56.980;24.336;2023-08-07T04:20:56;27.00;99.90
28654;DHT22;24320;56.980;24.336;2023-08-07T04:23:23;26.90;99.90
28654;DHT22;24320;56.980;24.336;2023-08-07T04:25:53;27.00;99.90
28654;DHT22;24320;56.980;24.336;2023-08-07T04:28:20;27.10;99.90
28654;DHT22;24320;56.980;24.336;2023-08-07T04:30:52;27.10;99.90
28654;DHT22;24320;56.980;24.336;2023-08-07T04:33:20;27.10;99.90
28654;DHT22;24320;56.980;24.336;2023-08-07T04:35:47;27.30;99.90
28654;DHT22;24320;56.980;24.336;2023-08-07T04:38:17;27.40;99.90
28654;DHT22;24320;56.980;24.336;2023-08-07T04:40:46;27.60;99.90
28654;DHT22;24320;56.980;24.336;2023-08-07T04:43:17;27.60;99.90
28654;DHT22;24320;56.980;24.336;2023-08-07T04:45:44;27.70;99.90
28654;DHT22;24320;56.980;24.336;2023-08-07T04:48:14;27.80;99.90
28654;DHT22;24320;56.980;24.336;2023-08-07T04:50:42;28.10;99.90
28654;DHT22;24320;56.980;24.336;2023-08-07T04:53:09;28.30;99.90
28654;DHT22;24320;56.980;24.336;2023-08-07T04:55:36;28.30;99.90
28654;DHT22;24320;56.980;24.336;2023-08-07T04:58:03;28.30;99.90
28654;DHT22;24320;56.980;24.336;2023-08-07T05:00:30;28.30;99.90
28654;DHT22;24320;56.980;24.336;2023-08-07T05:02:57;28.60;99.90
28654;DHT22;24320;56.980;24.336;2023-08-07T05:05:25;28.80;99.90
28654;DHT22;24320;56.980;24.336;2023-08-07T05:07:52;28.60;99.90
28654;DHT22;24320;56.980;24.336;2023-08-07T05:10:19;28.20;99.90
28654;DHT22;24320;56.980;24.336;2023-08-07T05:12:46;28.00;99.90
28654;DHT22;24320;56.980;24.336;2023-08-07T05:15:13;27.70;99.90
28654;DHT22;24320;56.980;24.336;2023-08-07T05:17:40;27.20;99.90
28654;DHT22;24320;56.980;24.336;2023-08-07T05:20:08;26.20;99.90
28654;DHT22;24320;56.980;24.336;2023-08-07T05:22:36;25.30;99.90
28654;DHT22;24320;56.980;24.336;2023-08-07T05:25:04;24.60;99.90
28654;DHT22;24320;56.980;24.336;2023-08-07T05:27:31;24.20;99.90
28654;DHT22;24320;56.980;24.336;2023-08-07T05:29:59;24.00;99.90
28654;DHT22;24320;56.980;24.336;2023-08-07T05:32:26;23.90;99.90
28654;DHT22;24320;56.980;24.336;2023-08-07T05:34:55;24.20;99.90
28654;DHT22;24320;56.980;24.336;2023-08-07T05:37:22;24.80;99.90
28654;DHT22;24320;56.980;24.336;2023-08-07T05:39:49;25.60;99.90
28654;DHT22;24320;56.980;24.336;2023-08-07T05:42:16;26.40;99.90
28654;DHT22;24320;56.980;24.336;2023-08-07T05:44:43;26.90;99.90
28654;DHT22;24320;56.980;24.336;2023-08-07T05:47:10;27.30;99.90
28654;DHT22;24320;56.980;24.336;2023-08-07T05:49:37;27.70;99.90
28654;DHT22;24320;56.980;24.336;2023-08-07T05:52:05;27.80;99.90
28654;DHT22;24320;56.980;24.336;2023-08-07T05:54:32;28.00;99.90
28654;DHT22;24320;56.980;24.336;2023-08-07T05:57:00;28.10;99.90
28654;DHT22;24320;56.980;24.336;2023-08-07T05:59:27;28.30;99.90
28654;DHT22;24320;56.980;24.336;2023-08-07T06:01:54;28.40;99.90
28654;DHT22;24320;56.980;24.336;2023-08-07T06:04:25;28.40;99.90
28654;DHT22;24320;56.980;24.336;2023-08-07T06:06:52;28.30;99.90
28654;DHT22;24320;56.980;24.336;2023-08-07T06:09:19;28.40;99.90
28654;DHT22;24320;56.980;24.336;2023-08-07T06:11:48;28.70;99.90
28654;DHT22;24320;56.980;24.336;2023-08-07T06:14:15;29.00;99.90
28654;DHT22;24320;56.980;24.336;2023-08-07T06:16:43;29.10;99.90
28654;DHT22;24320;56.980;24.336;2023-08-07T06:19:10;29.10;99.90
28654;DHT22;24320;56.980;24.336;2023-08-07T06:21:55;29.10;99.90
28654;DHT22;24320;56.980;24.336;2023-08-07T06:24:23;29.10;99.90
28654;DHT22;24320;56.980;24.336;2023-08-07T06:26:52;29.00;99.90
28654;DHT22;24320;56.980;24.336;2023-08-07T06:29:19;29.00;99.90
28654;DHT22;24320;56.980;24.336;2023-08-07T06:31:46;29.10;99.90
28654;DHT22;24320;56.980;24.336;2023-08-07T06:34:13;28.90;99.90
28654;DHT22;24320;56.980;24.336;2023-08-07T06:36:40;29.10;99.90
28654;DHT22;24320;56.980;24.336;2023-08-07T06:39:07;29.30;99.90
28654;DHT22;24320;56.980;24.336;2023-08-07T06:41:34;29.40;99.90
28654;DHT22;24320;56.980;24.336;2023-08-07T06:44:02;29.60;99.90
28654;DHT22;24320;56.980;24.336;2023-08-07T06:46:29;29.60;99.90
28654;DHT22;24320;56.980;24.336;2023-08-07T06:48:56;29.60;99.90
28654;DHT22;24320;56.980;24.336;2023-08-07T06:51:23;29.80;99.90
28654;DHT22;24320;56.980;24.336;2023-08-07T06:53:50;29.90;99.90
28654;DHT22;24320;56.980;24.336;2023-08-07T06:56:17;29.90;99.90
28654;DHT22;24320;56.980;24.336;2023-08-07T06:58:45;29.90;99.90
28654;DHT22;24320;56.980;24.336;2023-08-07T07:01:12;29.90;99.90
28654;DHT22;24320;56.980;24.336;2023-08-07T07:03:39;30.00;99.90
28654;DHT22;24320;56.980;24.336;2023-08-07T07:06:06;30.20;99.90
28654;DHT22;24320;56.980;24.336;2023-08-07T07:08:33;30.10;99.90
28654;DHT22;24320;56.980;24.336;2023-08-07T07:11:00;30.20;99.90
28654;DHT22;24320;56.980;24.336;2023-08-07T07:13:27;30.30;99.90
28654;DHT22;24320;56.980;24.336;2023-08-07T07:15:55;30.70;99.90
28654;DHT22;24320;56.980;24.336;2023-08-07T07:18:22;31.00;99.90
28654;DHT22;24320;56.980;24.336;2023-08-07T07:23:29;30.60;99.90
28654;DHT22;24320;56.980;24.336;2023-08-07T07:25:56;30.20;99.90
28654;DHT22;24320;56.980;24.336;2023-08-07T07:28:24;30.00;99.90
28654;DHT22;24320;56.980;24.336;2023-08-07T07:30:51;29.60;99.90
28654;DHT22;24320;56.980;24.336;2023-08-07T07:33:18;29.60;99.90
28654;DHT22;24320;56.980;24.336;2023-08-07T07:35:45;30.00;99.90
28654;DHT22;24320;56.980;24.336;2023-08-07T07:38:12;30.20;99.90
28654;DHT22;24320;56.980;24.336;2023-08-07T07:40:39;30.40;99.90
28654;DHT22;24320;56.980;24.336;2023-08-07T07:43:06;30.60;99.90
28654;DHT22;24320;56.980;24.336;2023-08-07T07:45:33;30.80;99.90
28654;DHT22;24320;56.980;24.336;2023-08-07T07:48:03;31.00;99.90
28654;DHT22;24320;56.980;24.336;2023-08-07T07:50:30;31.20;99.90
28654;DHT22;24320;56.980;24.336;2023-08-07T07:52:57;31.40;99.90
28654;DHT22;24320;56.980;24.336;2023-08-07T07:55:25;31.30;99.90
28654;DHT22;24320;56.980;24.336;2023-08-07T07:57:53;31.20;99.90
28654;DHT22;24320;56.980;24.336;2023-08-07T08:00:21;31.20;99.90
28654;DHT22;24320;56.980;24.336;2023-08-07T08:02:53;31.30;99.90
28654;DHT22;24320;56.980;24.336;2023-08-07T08:05:21;31.30;99.90
28654;DHT22;24320;56.980;24.336;2023-08-07T08:07:48;31.30;99.90
28654;DHT22;24320;56.980;24.336;2023-08-07T08:10:15;31.10;99.90
28654;DHT22;24320;56.980;24.336;2023-08-07T08:12:42;30.80;99.90
28654;DHT22;24320;56.980;24.336;2023-08-07T08:15:09;30.70;99.90
28654;DHT22;24320;56.980;24.336;2023-08-07T08:17:36;30.70;99.90
28654;DHT22;24320;56.980;24.336;2023-08-07T08:20:03;30.70;99.90
28654;DHT22;24320;56.980;24.336;2023-08-07T08:22:31;30.60;99.90
28654;DHT22;24320;56.980;24.336;2023-08-07T08:24:58;30.60;99.90
28654;DHT22;24320;56.980;24.336;2023-08-07T08:27:25;30.60;99.90
28654;DHT22;24320;56.980;24.336;2023-08-07T08:29:52;30.60;99.90
28654;DHT22;24320;56.980;24.336;2023-08-07T08:32:20;30.50;99.90
28654;DHT22;24320;56.980;24.336;2023-08-07T08:34:47;30.50;99.90
28654;DHT22;24320;56.980;24.336;2023-08-07T08:37:16;30.60;99.90
28654;DHT22;24320;56.980;24.336;2023-08-07T08:39:43;30.50;99.90
28654;DHT22;24320;56.980;24.336;2023-08-07T08:42:11;30.50;99.90
28654;DHT22;24320;56.980;24.336;2023-08-07T08:44:48;30.50;99.90
28654;DHT22;24320;56.980;24.336;2023-08-07T08:47:18;30.50;99.90
28654;DHT22;24320;56.980;24.336;2023-08-07T08:50:07;30.50;99.90
28654;DHT22;24320;56.980;24.336;2023-08-07T08:52:37;30.50;99.90
28654;DHT22;24320;56.980;24.336;2023-08-07T08:55:05;30.30;99.90
28654;DHT22;24320;56.980;24.336;2023-08-07T08:57:33;30.10;99.90
28654;DHT22;24320;56.980;24.336;2023-08-07T09:00:01;30.00;99.90
28654;DHT22;24320;56.980;24.336;2023-08-07T09:02:34;30.00;99.90
28654;DHT22;24320;56.980;24.336;2023-08-07T09:05:01;30.10;99.90
28654;DHT22;24320;56.980;24.336;2023-08-07T09:07:28;30.00;99.90
28654;DHT22;24320;56.980;24.336;2023-08-07T09:09:57;29.90;99.90
28654;DHT22;24320;56.980;24.336;2023-08-07T09:12:26;29.70;99.90
28654;DHT22;24320;56.980;24.336;2023-08-07T09:17:38;29.70;99.90
28654;DHT22;24320;56.980;24.336;2023-08-07T09:20:07;30.00;99.90
28654;DHT22;24320;56.980;24.336;2023-08-07T09:22:39;30.30;99.90
28654;DHT22;24320;56.980;24.336;2023-08-07T09:25:07;30.60;99.90
28654;DHT22;24320;56.980;24.336;2023-08-07T09:27:37;30.80;99.90
28654;DHT22;24320;56.980;24.336;2023-08-07T09:30:08;30.90;99.90
28654;DHT22;24320;56.980;24.336;2023-08-07T09:32:36;30.90;99.90
28654;DHT22;24320;56.980;24.336;2023-08-07T09:35:06;31.00;99.90
28654;DHT22;24320;56.980;24.336;2023-08-07T09:37:36;31.10;99.90
28654;DHT22;24320;56.980;24.336;2023-08-07T09:40:04;31.20;99.90
28654;DHT22;24320;56.980;24.336;2023-08-07T09:42:31;31.30;99.90
28654;DHT22;24320;56.980;24.336;2023-08-07T09:45:00;31.20;99.90
28654;DHT22;24320;56.980;24.336;2023-08-07T09:47:27;31.10;99.90
28654;DHT22;24320;56.980;24.336;2023-08-07T09:49:55;31.00;99.90
28654;DHT22;24320;56.980;24.336;2023-08-07T09:52:24;31.00;99.90
28654;DHT22;24320;56.980;24.336;2023-08-07T09:54:56;31.10;99.90
28654;DHT22;24320;56.980;24.336;2023-08-07T09:57:24;31.00;99.90
28654;DHT22;24320;56.980;24.336;2023-08-07T09:59:52;30.90;99.90
28654;DHT22;24320;56.980;24.336;2023-08-07T10:02:19;31.00;99.90
28654;DHT22;24320;56.980;24.336;2023-08-07T10:04:48;31.10;99.90
28654;DHT22;24320;56.980;24.336;2023-08-07T10:07:16;31.20;99.90
28654;DHT22;24320;56.980;24.336;2023-08-07T10:09:44;31.20;99.90
28654;DHT22;24320;56.980;24.336;2023-08-07T10:12:11;31.30;99.90
28654;DHT22;24320;56.980;24.336;2023-08-07T10:14:40;31.30;99.90
28654;DHT22;24320;56.980;24.336;2023-08-07T10:17:09;31.40;99.90
28654;DHT22;24320;56.980;24.336;2023-08-07T10:19:36;31.40;99.90
28654;DHT22;24320;56.980;24.336;2023-08-07T10:22:06;31.40;99.90
28654;DHT22;24320;56.980;24.336;2023-08-07T10:24:36;31.40;99.90
28654;DHT22;24320;56.980;24.336;2023-08-07T10:29:52;31.50;99.90
28654;DHT22;24320;56.980;24.336;2023-08-07T10:32:22;31.60;99.90
28654;DHT22;24320;56.980;24.336;2023-08-07T10:34:50;31.60;99.90
28654;DHT22;24320;56.980;24.336;2023-08-07T10:37:40;31.70;99.90
28654;DHT22;24320;56.980;24.336;2023-08-07T10:40:09;31.60;99.90
28654;DHT22;24320;56.980;24.336;2023-08-07T10:42:56;31.40;99.90
28654;DHT22;24320;56.980;24.336;2023-08-07T10:45:27;31.20;99.90
28654;DHT22;24320;56.980;24.336;2023-08-07T10:50:36;31.20;99.90
28654;DHT22;24320;56.980;24.336;2023-08-07T10:53:19;31.30;99.90
28654;DHT22;24320;56.980;24.336;2023-08-07T10:55:48;31.40;99.90
28654;DHT22;24320;56.980;24.336;2023-08-07T10:58:26;31.40;99.90
28654;DHT22;24320;56.980;24.336;2023-08-07T11:01:24;31.20;99.90
28654;DHT22;24320;56.980;24.336;2023-08-07T11:03:58;30.90;99.90
28654;DHT22;24320;56.980;24.336;2023-08-07T11:06:30;30.10;99.90
28654;DHT22;24320;56.980;24.336;2023-08-07T11:09:02;28.30;99.90
28654;DHT22;24320;56.980;24.336;2023-08-07T11:14:08;25.10;99.90
28654;DHT22;24320;56.980;24.336;2023-08-07T11:16:35;23.80;99.90
28654;DHT22;24320;56.980;24.336;2023-08-07T11:19:03;22.90;99.90
28654;DHT22;24320;56.980;24.336;2023-08-07T11:21:32;22.10;99.90
28654;DHT22;24320;56.980;24.336;2023-08-07T11:24:01;21.50;99.90
28654;DHT22;24320;56.980;24.336;2023-08-07T11:26:28;20.90;99.90
28654;DHT22;24320;56.980;24.336;2023-08-07T11:28:56;20.50;99.90
28654;DHT22;24320;56.980;24.336;2023-08-07T11:31:24;20.10;99.90
28654;DHT22;24320;56.980;24.336;2023-08-07T11:33:55;19.90;99.90
28654;DHT22;24320;56.980;24.336;2023-08-07T11:36:24;19.80;99.90
28654;DHT22;24320;56.980;24.336;2023-08-07T11:38:51;19.70;99.90
28654;DHT22;24320;56.980;24.336;2023-08-07T11:41:19;19.60;99.90
28654;DHT22;24320;56.980;24.336;2023-08-07T11:43:47;19.50;99.90
28654;DHT22;24320;56.980;24.336;2023-08-07T11:46:15;19.40;99.90
28654;DHT22;24320;56.980;24.336;2023-08-07T11:48:43;19.40;99.90
28654;DHT22;24320;56.980;24.336;2023-08-07T11:51:11;19.40;99.90
28654;DHT22;24320;56.980;24.336;2023-08-07T11:53:41;19.40;99.90
28654;DHT22;24320;56.980;24.336;2023-08-07T11:56:10;19.40;99.90
28654;DHT22;24320;56.980;24.336;2023-08-07T11:58:39;19.40;99.90
28654;DHT22;24320;56.980;24.336;2023-08-07T12:01:10;19.50;99.90
28654;DHT22;24320;56.980;24.336;2023-08-07T12:03:40;19.50;99.90
28654;DHT22;24320;56.980;24.336;2023-08-07T12:06:09;19.50;99.90
28654;DHT22;24320;56.980;24.336;2023-08-07T12:08:38;19.40;99.90
28654;DHT22;24320;56.980;24.336;2023-08-07T12:11:07;19.30;99.90
28654;DHT22;24320;56.980;24.336;2023-08-07T12:13:40;19.30;99.90
28654;DHT22;24320;56.980;24.336;2023-08-07T12:16:08;19.30;99.90
28654;DHT22;24320;56.980;24.336;2023-08-07T12:18:37;19.30;99.90
28654;DHT22;24320;56.980;24.336;2023-08-07T12:21:07;19.40;99.90
28654;DHT22;24320;56.980;24.336;2023-08-07T12:23:35;19.50;99.90
28654;DHT22;24320;56.980;24.336;2023-08-07T12:26:03;19.70;99.90
28654;DHT22;24320;56.980;24.336;2023-08-07T12:28:30;19.90;99.90
28654;DHT22;24320;56.980;24.336;2023-08-07T12:30:57;20.10;99.90
28654;DHT22;24320;56.980;24.336;2023-08-07T12:33:25;20.40;99.90
28654;DHT22;24320;56.980;24.336;2023-08-07T12:35:53;20.60;99.90
28654;DHT22;24320;56.980;24.336;2023-08-07T12:38:20;20.50;99.90
28654;DHT22;24320;56.980;24.336;2023-08-07T12:40:47;20.40;99.90
28654;DHT22;24320;56.980;24.336;2023-08-07T12:43:15;20.30;99.90
28654;DHT22;24320;56.980;24.336;2023-08-07T12:45:42;20.20;99.90
28654;DHT22;24320;56.980;24.336;2023-08-07T12:48:13;20.20;99.90
28654;DHT22;24320;56.980;24.336;2023-08-07T12:50:40;20.10;99.90
28654;DHT22;24320;56.980;24.336;2023-08-07T12:53:08;20.10;99.90
28654;DHT22;24320;56.980;24.336;2023-08-07T12:55:35;20.00;99.90
28654;DHT22;24320;56.980;24.336;2023-08-07T12:58:02;19.90;99.90
28654;DHT22;24320;56.980;24.336;2023-08-07T13:00:29;19.90;99.90
28654;DHT22;24320;56.980;24.336;2023-08-07T13:02:58;19.90;99.90
28654;DHT22;24320;56.980;24.336;2023-08-07T13:05:28;19.90;99.90
28654;DHT22;24320;56.980;24.336;2023-08-07T13:07:57;19.90;99.90
28654;DHT22;24320;56.980;24.336;2023-08-07T13:10:25;19.80;99.90
28654;DHT22;24320;56.980;24.336;2023-08-07T13:12:55;19.80;99.90
28654;DHT22;24320;56.980;24.336;2023-08-07T13:15:22;19.70;99.90
28654;DHT22;24320;56.980;24.336;2023-08-07T13:17:49;19.70;99.90
28654;DHT22;24320;56.980;24.336;2023-08-07T13:20:16;19.70;99.90
28654;DHT22;24320;56.980;24.336;2023-08-07T13:22:44;19.60;99.90
28654;DHT22;24320;56.980;24.336;2023-08-07T13:25:12;19.50;99.90
28654;DHT22;24320;56.980;24.336;2023-08-07T13:27:40;19.60;99.90
28654;DHT22;24320;56.980;24.336;2023-08-07T13:30:08;19.50;99.90
28654;DHT22;24320;56.980;24.336;2023-08-07T13:32:36;19.60;99.90
28654;DHT22;24320;56.980;24.336;2023-08-07T13:35:04;19.50;99.90
28654;DHT22;24320;56.980;24.336;2023-08-07T13:37:31;19.40;99.90
28654;DHT22;24320;56.980;24.336;2023-08-07T13:40:00;19.40;99.90
28654;DHT22;24320;56.980;24.336;2023-08-07T13:42:27;19.40;99.90
28654;DHT22;24320;56.980;24.336;2023-08-07T13:44:55;19.40;99.90
28654;DHT22;24320;56.980;24.336;2023-08-07T13:47:22;19.30;99.90
28654;DHT22;24320;56.980;24.336;2023-08-07T13:49:54;19.30;99.90
28654;DHT22;24320;56.980;24.336;2023-08-07T13:52:22;19.20;99.90
28654;DHT22;24320;56.980;24.336;2023-08-07T13:54:50;19.20;99.90
28654;DHT22;24320;56.980;24.336;2023-08-07T13:57:17;19.20;99.90
28654;DHT22;24320;56.980;24.336;2023-08-07T13:59:44;19.10;99.90
28654;DHT22;24320;56.980;24.336;2023-08-07T14:02:11;19.20;99.90
28654;DHT22;24320;56.980;24.336;2023-08-07T14:04:38;19.20;99.90
28654;DHT22;24320;56.980;24.336;2023-08-07T14:07:06;19.20;99.90
28654;DHT22;24320;56.980;24.336;2023-08-07T14:09:33;19.20;99.90
28654;DHT22;24320;56.980;24.336;2023-08-07T14:12:00;19.10;99.90
28654;DHT22;24320;56.980;24.336;2023-08-07T14:14:27;19.10;99.90
28654;DHT22;24320;56.980;24.336;2023-08-07T14:16:54;19.10;99.90
28654;DHT22;24320;56.980;24.336;2023-08-07T14:19:24;19.10;99.90
28654;DHT22;24320;56.980;24.336;2023-08-07T14:21:51;19.10;99.90
28654;DHT22;24320;56.980;24.336;2023-08-07T14:24:18;19.10;99.90
28654;DHT22;24320;56.980;24.336;2023-08-07T14:26:45;19.00;99.90
28654;DHT22;24320;56.980;24.336;2023-08-07T14:29:13;19.10;99.90
28654;DHT22;24320;56.980;24.336;2023-08-07T14:31:40;19.10;99.90
28654;DHT22;24320;56.980;24.336;2023-08-07T14:34:07;19.00;99.90
28654;DHT22;24320;56.980;24.336;2023-08-07T14:36:35;19.00;99.90
28654;DHT22;24320;56.980;24.336;2023-08-07T14:39:02;19.00;99.90
28654;DHT22;24320;56.980;24.336;2023-08-07T14:41:29;19.00;99.90
28654;DHT22;24320;56.980;24.336;2023-08-07T14:43:56;19.00;99.90
28654;DHT22;24320;56.980;24.336;2023-08-07T14:46:24;19.00;99.90
28654;DHT22;24320;56.980;24.336;2023-08-07T14:48:51;19.10;99.90
28654;DHT22;24320;56.980;24.336;2023-08-07T14:51:18;19.10;99.90
28654;DHT22;24320;56.980;24.336;2023-08-07T14:53:45;19.10;99.90
28654;DHT22;24320;56.980;24.336;2023-08-07T14:56:12;19.00;99.90
28654;DHT22;24320;56.980;24.336;2023-08-07T14:58:40;19.00;99.90
28654;DHT22;24320;56.980;24.336;2023-08-07T15:01:07;18.90;99.90
28654;DHT22;24320;56.980;24.336;2023-08-07T15:03:41;18.90;99.90
28654;DHT22;24320;56.980;24.336;2023-08-07T15:06:09;18.90;99.90
28654;DHT22;24320;56.980;24.336;2023-08-07T15:08:36;18.90;99.90
28654;DHT22;24320;56.980;24.336;2023-08-07T15:11:03;18.90;99.90
28654;DHT22;24320;56.980;24.336;2023-08-07T15:13:30;18.90;99.90
28654;DHT22;24320;56.980;24.336;2023-08-07T15:15:57;19.00;99.90
28654;DHT22;24320;56.980;24.336;2023-08-07T15:18:24;19.00;99.90
28654;DHT22;24320;56.980;24.336;2023-08-07T15:20:52;19.00;99.90
28654;DHT22;24320;56.980;24.336;2023-08-07T15:23:19;18.90;99.90
28654;DHT22;24320;56.980;24.336;2023-08-07T15:25:46;18.90;99.90
28654;DHT22;24320;56.980;24.336;2023-08-07T15:28:13;19.00;99.90
28654;DHT22;24320;56.980;24.336;2023-08-07T15:30:47;18.90;99.90
28654;DHT22;24320;56.980;24.336;2023-08-07T15:33:15;18.90;99.90
28654;DHT22;24320;56.980;24.336;2023-08-07T15:35:43;18.90;99.90
28654;DHT22;24320;56.980;24.336;2023-08-07T15:38:11;18.90;99.90
28654;DHT22;24320;56.980;24.336;2023-08-07T15:40:41;18.90;99.90
28654;DHT22;24320;56.980;24.336;2023-08-07T15:43:08;19.00;99.90
28654;DHT22;24320;56.980;24.336;2023-08-07T15:45:36;19.00;99.90
28654;DHT22;24320;56.980;24.336;2023-08-07T15:48:05;19.10;99.90